createdAt,value
2024-01-16T00:02:18.594Z,2.53
2024-01-16T00:05:20.823Z,2.43
2024-01-16T00:07:52.544Z,2.53
2024-01-16T00:10:22.952Z,2.30
2024-01-16T00:12:52.798Z,2.33
2024-01-16T00:16:07.213Z,2.60
2024-01-16T00:24:56.783Z,2.40
2024-01-16T00:27:27.139Z,3.43
2024-01-16T00:30:00.617Z,3.10
2024-01-16T00:32:29.962Z,2.93
2024-01-16T00:35:13.100Z,3.13
2024-01-16T00:37:44.218Z,3.30
2024-01-16T00:40:14.054Z,2.50
2024-01-16T00:42:45.422Z,2.50
2024-01-16T00:45:14.657Z,2.50
2024-01-16T00:47:44.402Z,2.40
2024-01-16T00:50:15.661Z,2.70
2024-01-16T00:52:46.706Z,1.93
2024-01-16T00:55:15.941Z,2.20
2024-01-16T00:57:45.443Z,2.40
2024-01-16T01:00:17.415Z,2.43
2024-01-16T01:02:46.242Z,3.00
2024-01-16T01:05:18.243Z,4.00
2024-01-16T01:07:53.216Z,2.90
2024-01-16T01:10:22.131Z,2.13
2024-01-16T01:12:53.195Z,2.00
2024-01-16T01:15:36.679Z,1.77
2024-01-16T01:18:08.923Z,2.27
2024-01-16T01:20:44.457Z,1.90
2024-01-16T01:23:40.099Z,2.13
2024-01-16T01:26:11.623Z,2.40
2024-01-16T01:28:44.541Z,2.80
2024-01-16T01:31:14.645Z,2.43
2024-01-16T01:33:44.313Z,2.70
2024-01-16T01:36:12.937Z,2.40
2024-01-16T01:38:43.224Z,2.07
2024-01-16T01:41:13.320Z,2.30
2024-01-16T01:43:43.816Z,2.20
2024-01-16T01:46:19.088Z,1.63
2024-01-16T01:48:53.342Z,1.97
2024-01-16T01:51:22.020Z,2.13
2024-01-16T01:53:54.289Z,2.10
2024-01-16T01:56:24.674Z,2.37
2024-01-16T01:59:03.273Z,1.97
2024-01-16T02:01:35.764Z,2.07
2024-01-16T02:04:06.367Z,1.60
2024-01-16T02:06:35.506Z,1.70
2024-01-16T02:09:11.746Z,1.70
2024-01-16T02:11:40.980Z,2.10
2024-01-16T02:20:18.072Z,2.10
2024-01-16T02:28:36.510Z,1.83
2024-01-16T02:31:08.296Z,2.00
2024-01-16T02:33:39.979Z,2.00
2024-01-16T02:39:14.253Z,1.97
2024-01-16T02:42:05.449Z,1.80
2024-01-16T02:44:36.771Z,2.00
2024-01-16T02:47:11.660Z,1.60
2024-01-16T02:49:46.640Z,1.70
2024-01-16T02:52:16.397Z,1.80
2024-01-16T02:54:47.615Z,1.77
2024-01-16T02:57:21.911Z,1.63
2024-01-16T02:59:54.614Z,1.53
2024-01-16T03:02:24.871Z,1.57
2024-01-16T03:04:55.667Z,1.60
2024-01-16T03:07:26.297Z,1.50
2024-01-16T03:09:55.295Z,1.70
2024-01-16T03:12:27.441Z,1.70
2024-01-16T03:14:58.006Z,1.83
2024-01-16T03:17:28.206Z,1.60
2024-01-16T03:20:05.743Z,1.60
2024-01-16T03:22:34.682Z,1.43
2024-01-16T03:25:04.823Z,1.50
2024-01-16T03:27:35.267Z,1.70
2024-01-16T03:35:46.729Z,1.70
2024-01-16T03:41:01.793Z,2.00
2024-01-16T03:43:41.011Z,1.70
2024-01-16T03:46:10.697Z,1.70
2024-01-16T03:48:42.318Z,2.60
2024-01-16T03:57:26.143Z,3.30
2024-01-16T04:00:26.818Z,1.50
2024-01-16T04:03:19.074Z,1.40
2024-01-16T04:05:55.048Z,1.70
2024-01-16T04:08:27.772Z,1.40
2024-01-16T04:10:58.112Z,1.50
2024-01-16T04:13:41.121Z,1.53
2024-01-16T04:16:12.083Z,1.40
2024-01-16T04:18:47.060Z,1.53
2024-01-16T04:21:20.927Z,1.50
2024-01-16T04:23:50.716Z,1.20
2024-01-16T04:26:22.213Z,1.77
2024-01-16T04:28:53.944Z,1.70
2024-01-16T04:31:24.552Z,1.67
2024-01-16T04:34:37.838Z,1.43
2024-01-16T04:37:50.896Z,1.40
2024-01-16T04:40:33.525Z,1.33
2024-01-16T04:46:14.607Z,1.73
2024-01-16T04:55:05.975Z,1.50
2024-01-16T04:58:18.504Z,1.20
2024-01-16T05:01:21.031Z,1.20
2024-01-16T05:10:06.416Z,1.50
2024-01-16T05:12:38.372Z,1.50
2024-01-16T05:18:35.632Z,1.30
2024-01-16T05:21:13.856Z,1.30
2024-01-16T05:23:50.492Z,1.40
2024-01-16T05:26:20.782Z,1.50
2024-01-16T05:29:13.247Z,1.40
2024-01-16T05:38:07.400Z,1.40
2024-01-16T05:40:42.783Z,1.53
2024-01-16T05:43:22.943Z,1.87
2024-01-16T05:48:40.258Z,1.40
2024-01-16T05:51:17.474Z,1.53
2024-01-16T05:53:52.009Z,1.53
2024-01-16T05:56:23.235Z,1.20
2024-01-16T05:58:54.163Z,1.00
2024-01-16T06:01:30.195Z,1.13
2024-01-16T06:07:04.233Z,1.60
2024-01-16T06:09:48.244Z,2.73
2024-01-16T06:12:28.612Z,1.57
2024-01-16T06:15:16.897Z,1.50
2024-01-16T06:17:52.423Z,1.10
2024-01-16T06:23:57.527Z,1.20
2024-01-16T06:26:59.769Z,1.30
2024-01-16T06:32:41.490Z,1.90
2024-01-16T06:38:17.055Z,1.10
2024-01-16T06:41:01.580Z,1.23
2024-01-16T06:43:54.570Z,3.30
2024-01-16T06:52:24.260Z,7.80
2024-01-16T06:55:01.774Z,4.90
2024-01-16T06:57:34.969Z,3.70
2024-01-16T07:00:19.100Z,4.07
2024-01-16T07:03:07.962Z,2.20
2024-01-16T07:05:52.596Z,1.90
2024-01-16T07:08:34.621Z,1.10
2024-01-16T07:14:13.600Z,1.70
2024-01-16T07:17:05.062Z,2.80
2024-01-16T07:22:37.015Z,1.77
2024-01-16T07:28:22.724Z,1.60
2024-01-16T07:31:05.788Z,1.13
2024-01-16T07:34:25.596Z,1.23
2024-01-16T07:40:57.450Z,1.30
2024-01-16T07:43:55.301Z,1.10
2024-01-16T07:49:24.894Z,0.80
2024-01-16T07:51:55.220Z,1.10
2024-01-16T07:54:25.873Z,1.20
2024-01-16T07:57:03.279Z,0.93
2024-01-16T07:59:39.886Z,1.13
2024-01-16T08:02:29.322Z,0.90
2024-01-16T08:51:54.147Z,0.90
2024-01-16T08:54:41.172Z,0.90
2024-01-16T08:57:18.430Z,1.13
2024-01-16T08:59:54.882Z,1.00
2024-01-16T09:02:30.639Z,1.43
2024-01-16T09:05:45.965Z,3.30
2024-01-16T09:08:40.238Z,1.37
2024-01-16T09:16:38.270Z,1.40
2024-01-16T09:22:22.681Z,0.70
2024-01-16T09:28:18.602Z,0.90
2024-01-16T09:30:48.966Z,0.97
2024-01-16T09:36:01.691Z,1.23
2024-01-16T09:38:32.560Z,1.10
2024-01-16T09:41:04.874Z,1.17
2024-01-16T09:43:38.479Z,1.20
2024-01-16T09:46:09.904Z,1.50
2024-01-16T09:48:38.947Z,1.20
2024-01-16T09:51:09.275Z,1.50
2024-01-16T09:53:39.988Z,1.30
2024-01-16T09:56:14.852Z,1.50
2024-01-16T09:58:47.061Z,1.30
2024-01-16T10:01:17.199Z,1.43
2024-01-16T10:03:50.374Z,1.47
2024-01-16T10:06:22.866Z,1.20
2024-01-16T10:08:52.520Z,1.23
2024-01-16T10:11:22.257Z,1.77
2024-01-16T10:13:54.806Z,2.17
2024-01-16T10:16:26.081Z,1.50
2024-01-16T10:19:10.076Z,1.70
2024-01-16T10:21:38.932Z,1.70
2024-01-16T10:24:14.266Z,1.93
2024-01-16T10:27:02.659Z,1.47
2024-01-16T10:29:43.408Z,2.00
2024-01-16T10:32:31.681Z,2.33
2024-01-16T10:35:09.814Z,1.93
2024-01-16T10:37:45.767Z,1.70
2024-01-16T10:40:22.499Z,1.57
2024-01-16T10:43:01.583Z,1.87
2024-01-16T10:45:34.018Z,1.57
2024-01-16T10:48:08.724Z,1.37
2024-01-16T10:50:38.977Z,1.30
2024-01-16T10:53:10.081Z,1.30
2024-01-16T10:55:52.230Z,2.20
2024-01-16T10:58:24.316Z,1.30
2024-01-16T11:00:57.314Z,1.50
2024-01-16T11:03:32.051Z,2.00
2024-01-16T11:06:02.247Z,2.00
2024-01-16T11:08:48.014Z,1.40
2024-01-16T11:11:19.348Z,1.70
2024-01-16T11:13:50.111Z,1.83
2024-01-16T11:16:25.515Z,1.53
2024-01-16T11:33:54.953Z,1.03
2024-01-16T12:05:27.574Z,1.40
2024-01-16T20:07:07.938Z,3.83
2024-01-16T22:28:02.059Z,4.07
